createdAt,value
2023-05-01T00:01:30.402Z,3.17
2023-05-01T00:03:58.422Z,2.47
2023-05-01T00:06:28.232Z,3.90
2023-05-01T00:08:57.442Z,5.57
2023-05-01T00:11:25.387Z,3.40
2023-05-01T00:13:54.252Z,3.38
2023-05-01T00:16:21.865Z,5.15
2023-05-01T00:18:49.629Z,6.05
2023-05-01T00:21:17.304Z,6.22
2023-05-01T00:23:44.844Z,6.40
2023-05-01T00:26:13.760Z,3.28
2023-05-01T00:28:41.478Z,3.83
2023-05-01T00:31:09.120Z,8.10
2023-05-01T00:33:37.010Z,8.25
2023-05-01T00:36:05.240Z,7.03
2023-05-01T00:38:32.841Z,5.63
2023-05-01T00:41:00.475Z,3.80
2023-05-01T00:43:29.359Z,5.05
2023-05-01T00:45:56.879Z,3.45
2023-05-01T00:48:24.558Z,4.17
2023-05-01T00:50:52.196Z,3.42
2023-05-01T00:53:20.426Z,3.70
2023-05-01T00:55:49.382Z,2.72
2023-05-01T00:58:18.646Z,3.30
2023-05-01T01:00:47.671Z,6.20
2023-05-01T01:03:15.443Z,3.13
2023-05-01T01:05:47.671Z,2.67
2023-05-01T01:08:21.009Z,2.70
2023-05-01T01:10:55.438Z,2.10
2023-05-01T01:13:30.017Z,2.70
2023-05-01T01:16:10.227Z,5.15
2023-05-01T01:18:44.492Z,2.28
2023-05-01T01:21:18.383Z,4.32
2023-05-01T01:24:12.220Z,3.85
2023-05-01T01:27:02.244Z,2.30
2023-05-01T01:29:47.501Z,3.17
2023-05-01T01:32:47.854Z,4.28
2023-05-01T01:35:20.725Z,4.15
2023-05-01T01:37:52.983Z,3.40
2023-05-01T01:40:25.555Z,2.93
2023-05-01T01:42:59.866Z,5.45
2023-05-01T01:45:40.782Z,3.85
2023-05-01T01:48:12.070Z,4.60
2023-05-01T01:50:43.146Z,2.88
2023-05-01T01:53:14.247Z,3.27
2023-05-01T01:55:45.649Z,4.30
2023-05-01T01:58:15.987Z,4.03
2023-05-01T02:00:46.087Z,2.25
2023-05-01T02:03:15.050Z,3.47
2023-05-01T02:05:44.798Z,2.53
2023-05-01T02:08:14.209Z,3.92
2023-05-01T02:10:43.004Z,7.72
2023-05-01T02:13:12.873Z,2.50
2023-05-01T02:15:42.030Z,2.72
2023-05-01T02:18:09.913Z,3.07
2023-05-01T02:20:38.805Z,3.80
2023-05-01T02:23:08.966Z,2.63
2023-05-01T02:25:40.259Z,2.85
2023-05-01T02:28:13.270Z,2.42
2023-05-01T02:30:41.143Z,2.70
2023-05-01T02:33:09.165Z,3.38
2023-05-01T02:35:40.761Z,4.32
2023-05-01T02:38:09.747Z,2.60
2023-05-01T02:40:39.490Z,4.35
2023-05-01T02:43:10.621Z,6.13
2023-05-01T02:45:39.756Z,4.32
2023-05-01T02:48:09.007Z,3.45
2023-05-01T02:50:37.639Z,4.38
2023-05-01T02:53:05.256Z,4.55
2023-05-01T02:55:35.162Z,3.80
2023-05-01T02:58:02.942Z,2.45
2023-05-01T03:00:30.930Z,6.70
2023-05-01T03:02:58.659Z,4.00
2023-05-01T03:05:26.843Z,4.97
2023-05-01T03:07:54.335Z,5.20
2023-05-01T03:10:22.297Z,6.75
2023-05-01T03:12:51.223Z,5.57
2023-05-01T03:15:19.000Z,5.03
2023-05-01T03:17:46.636Z,5.25
2023-05-01T03:20:14.350Z,6.70
2023-05-01T03:22:41.974Z,5.50
2023-05-01T03:25:10.547Z,5.35
2023-05-01T03:27:38.112Z,4.47
2023-05-01T03:30:08.797Z,5.35
2023-05-01T03:32:36.870Z,5.17
2023-05-01T03:35:04.727Z,4.13
2023-05-01T03:37:33.839Z,6.10
2023-05-01T03:40:01.675Z,6.85
2023-05-01T03:42:29.757Z,5.03
2023-05-01T03:44:57.325Z,5.67
2023-05-01T03:47:26.323Z,5.90
2023-05-01T03:49:54.073Z,4.88
2023-05-01T03:52:21.739Z,3.88
2023-05-01T03:54:49.864Z,4.03
2023-05-01T03:57:17.462Z,2.93
2023-05-01T03:59:44.980Z,3.35
2023-05-01T04:02:12.742Z,2.33
2023-05-01T04:04:41.640Z,4.10
2023-05-01T04:07:09.295Z,3.80
2023-05-01T04:09:37.250Z,6.40
2023-05-01T04:12:05.767Z,4.28
2023-05-01T04:14:33.327Z,5.72
2023-05-01T04:17:01.092Z,4.72
2023-05-01T04:19:28.607Z,3.28
2023-05-01T04:21:58.209Z,2.90
2023-05-01T04:24:25.788Z,4.20
2023-05-01T04:26:53.308Z,2.95
2023-05-01T04:29:21.040Z,4.90
2023-05-01T04:31:48.565Z,3.80
2023-05-01T04:34:16.170Z,4.07
2023-05-01T04:36:43.761Z,2.97
2023-05-01T04:39:12.776Z,3.30
2023-05-01T04:41:40.439Z,3.53
2023-05-01T04:44:07.916Z,2.53
2023-05-01T04:46:35.466Z,3.57
2023-05-01T04:49:03.045Z,2.95
2023-05-01T04:51:31.036Z,4.22
2023-05-01T04:53:58.557Z,3.70
2023-05-01T04:56:27.957Z,3.20
2023-05-01T04:58:55.482Z,2.43
2023-05-01T05:01:23.093Z,4.57
2023-05-01T05:03:50.837Z,5.57
2023-05-01T05:06:18.810Z,4.35
2023-05-01T05:08:46.314Z,2.78
2023-05-01T05:11:13.931Z,6.67
2023-05-01T05:13:42.945Z,3.78
2023-05-01T05:16:10.401Z,2.63
2023-05-01T05:18:38.620Z,2.60
2023-05-01T05:21:06.393Z,3.58
2023-05-01T05:23:34.095Z,4.07
2023-05-01T05:26:02.152Z,3.65
2023-05-01T05:28:30.268Z,3.65
2023-05-01T05:30:59.200Z,5.57
2023-05-01T05:33:26.722Z,3.55
2023-05-01T05:35:54.486Z,3.80
2023-05-01T05:38:22.093Z,3.10
2023-05-01T05:40:49.604Z,4.97
2023-05-01T05:43:17.211Z,3.00
2023-05-01T05:45:44.932Z,4.03
2023-05-01T05:48:14.332Z,5.27
2023-05-01T05:50:41.965Z,3.72
2023-05-01T05:53:09.888Z,4.72
2023-05-01T05:55:37.495Z,5.15
2023-05-01T05:58:05.155Z,4.47
2023-05-01T06:00:33.025Z,4.53
2023-05-01T06:03:00.640Z,3.70
2023-05-01T06:05:29.718Z,4.00
2023-05-01T06:07:58.827Z,3.80
2023-05-01T06:10:26.490Z,4.68
2023-05-01T06:13:03.799Z,3.63
2023-05-01T06:15:41.330Z,3.97
2023-05-01T06:18:09.248Z,3.95
2023-05-01T06:20:38.567Z,3.70
2023-05-01T06:23:08.417Z,4.20
2023-05-01T06:25:36.484Z,3.13
2023-05-01T06:28:03.957Z,4.53
2023-05-01T06:30:31.473Z,5.20
2023-05-01T06:32:59.177Z,5.28
2023-05-01T06:35:27.152Z,4.35
2023-05-01T06:37:56.870Z,3.23
2023-05-01T06:40:24.556Z,4.22
2023-05-01T06:42:52.465Z,2.97
2023-05-01T06:45:20.193Z,3.42
2023-05-01T06:47:47.981Z,4.93
2023-05-01T06:50:15.863Z,5.77
2023-05-01T06:52:43.537Z,3.58
2023-05-01T06:55:12.972Z,5.03
2023-05-01T06:57:41.279Z,3.90
2023-05-01T07:00:10.734Z,3.00
2023-05-01T07:02:40.480Z,5.97
2023-05-01T07:05:08.708Z,5.55
2023-05-01T07:07:37.523Z,4.28
2023-05-01T07:10:07.062Z,6.72
2023-05-01T07:12:35.884Z,5.22
2023-05-01T07:15:03.374Z,4.20
2023-05-01T07:17:30.917Z,5.82
2023-05-01T07:19:58.731Z,9.00
2023-05-01T07:22:26.339Z,3.70
2023-05-01T07:24:53.830Z,3.90
2023-05-01T07:27:21.348Z,4.83
2023-05-01T07:29:51.754Z,6.65
2023-05-01T07:32:19.324Z,4.30
2023-05-01T07:34:46.882Z,3.85
2023-05-01T07:37:14.373Z,3.58
2023-05-01T07:39:41.831Z,4.23
2023-05-01T07:42:09.294Z,3.85
2023-05-01T07:44:36.851Z,3.83
2023-05-01T07:47:06.233Z,4.45
2023-05-01T07:49:36.925Z,2.72
2023-05-01T07:52:05.257Z,1.97
2023-05-01T07:54:32.695Z,4.85
2023-05-01T07:57:01.662Z,5.43
2023-05-01T07:59:29.258Z,4.40
2023-05-01T08:01:57.603Z,3.03
2023-05-01T08:04:26.536Z,3.87
2023-05-01T08:06:54.088Z,3.25
2023-05-01T08:09:21.908Z,2.35
2023-05-01T08:11:49.362Z,2.80
2023-05-01T08:14:17.501Z,3.90
2023-05-01T08:16:45.126Z,2.10
2023-05-01T08:19:12.632Z,2.00
2023-05-01T08:21:41.437Z,5.60
2023-05-01T08:24:10.498Z,4.47
2023-05-01T08:26:38.192Z,4.22
2023-05-01T08:29:05.631Z,2.93
2023-05-01T08:31:39.425Z,1.83
2023-05-01T08:34:07.194Z,5.00
2023-05-01T08:36:35.866Z,2.13
2023-05-01T08:39:05.128Z,4.63
2023-05-01T08:41:33.779Z,3.33
2023-05-01T08:44:02.713Z,3.65
2023-05-01T08:46:38.331Z,2.78
2023-05-01T08:49:07.080Z,4.93
2023-05-01T08:51:35.900Z,2.35
2023-05-01T08:54:06.616Z,4.47
2023-05-01T08:56:37.065Z,2.25
2023-05-01T08:59:06.369Z,2.35
2023-05-01T09:01:34.784Z,4.00
2023-05-01T09:04:04.699Z,3.53
2023-05-01T09:06:33.056Z,2.37
2023-05-01T09:09:01.269Z,3.65
2023-05-01T09:11:31.257Z,4.55
2023-05-01T09:13:58.807Z,1.75
2023-05-01T09:16:26.316Z,3.55
2023-05-01T09:18:55.763Z,2.03
2023-05-01T09:21:24.518Z,2.60
2023-05-01T09:23:53.737Z,2.45
2023-05-01T09:26:21.836Z,2.35
2023-05-01T09:28:51.953Z,3.33
2023-05-01T09:31:23.405Z,2.90
2023-05-01T09:33:57.834Z,2.55
2023-05-01T09:36:27.855Z,2.70
2023-05-01T09:38:55.472Z,4.05
2023-05-01T09:41:23.421Z,3.97
2023-05-01T09:43:53.302Z,3.57
2023-05-01T09:46:21.197Z,3.80
2023-05-01T09:48:56.867Z,3.97
2023-05-01T09:51:27.676Z,2.65
2023-05-01T09:53:56.897Z,4.43
2023-05-01T09:56:25.214Z,4.77
2023-05-01T09:58:55.286Z,4.13
2023-05-01T10:01:41.352Z,4.30
2023-05-01T10:04:09.778Z,4.20
2023-05-01T10:06:38.116Z,4.07
2023-05-01T10:09:07.137Z,4.40
2023-05-01T10:11:49.251Z,3.50
2023-05-01T10:14:18.303Z,4.38
2023-05-01T10:16:46.594Z,4.53
2023-05-01T10:19:15.017Z,4.47
2023-05-01T10:21:42.601Z,4.33
2023-05-01T10:24:11.086Z,3.92
2023-05-01T10:26:38.951Z,5.55
2023-05-01T10:29:06.571Z,4.68
2023-05-01T10:31:36.140Z,4.03
2023-05-01T10:34:04.389Z,3.90
2023-05-01T10:36:37.199Z,2.75
2023-05-01T10:39:05.093Z,4.25
2023-05-01T10:42:04.817Z,2.83
2023-05-01T10:44:34.565Z,3.70
2023-05-01T10:47:42.731Z,4.70
2023-05-01T10:50:11.912Z,3.83
2023-05-01T10:53:16.630Z,4.47
2023-05-01T10:55:46.052Z,3.70
2023-05-01T10:58:14.663Z,3.22
2023-05-01T11:00:42.447Z,4.80
2023-05-01T11:03:40.305Z,4.25
2023-05-01T11:06:09.014Z,3.85
2023-05-01T11:08:38.197Z,3.38
2023-05-01T11:11:43.364Z,4.07
2023-05-01T11:14:11.423Z,4.33
2023-05-01T11:16:42.925Z,3.80
2023-05-01T11:19:13.311Z,5.93
2023-05-01T11:21:41.907Z,5.72
2023-05-01T11:24:10.174Z,4.25
2023-05-01T11:26:40.101Z,3.97
2023-05-01T11:29:08.240Z,4.57
2023-05-01T11:31:35.829Z,6.15
2023-05-01T11:34:04.266Z,5.03
2023-05-01T11:36:49.177Z,4.75
2023-05-01T11:39:17.791Z,4.97
2023-05-01T11:41:45.882Z,2.92
2023-05-01T11:44:16.129Z,6.00
2023-05-01T11:46:43.656Z,3.55
2023-05-01T11:49:12.848Z,3.22
2023-05-01T11:51:41.650Z,3.30
2023-05-01T11:54:10.729Z,3.28
2023-05-01T11:56:40.904Z,3.92
2023-05-01T11:59:13.172Z,2.88
2023-05-01T12:01:43.097Z,5.53
2023-05-01T12:04:11.382Z,5.77
2023-05-01T12:06:44.506Z,4.03
2023-05-01T12:09:16.535Z,3.30
2023-05-01T12:11:44.711Z,3.85
2023-05-01T12:14:13.196Z,2.28
2023-05-01T12:16:44.380Z,5.63
2023-05-01T12:19:14.239Z,8.45
2023-05-01T12:21:43.234Z,4.88
2023-05-01T12:24:11.673Z,4.55
2023-05-01T12:26:39.545Z,2.83
2023-05-01T12:29:08.882Z,5.73
2023-05-01T12:31:37.173Z,4.20
2023-05-01T12:34:06.448Z,3.95
2023-05-01T12:36:35.856Z,3.60
2023-05-01T12:39:06.347Z,3.80
2023-05-01T12:41:36.629Z,4.63
2023-05-01T12:44:04.224Z,5.47
2023-05-01T12:46:31.936Z,3.85
2023-05-01T12:48:59.478Z,4.82
2023-05-01T12:51:27.468Z,2.28
2023-05-01T12:53:57.369Z,5.83
2023-05-01T12:56:26.811Z,4.75
2023-05-01T12:58:55.261Z,5.53
2023-05-01T13:01:27.233Z,6.53
2023-05-01T13:03:57.833Z,7.28
2023-05-01T13:06:33.858Z,5.33
2023-05-01T13:09:10.080Z,5.13
2023-05-01T13:11:39.159Z,5.43
2023-05-01T13:14:08.721Z,5.25
2023-05-01T13:16:44.626Z,4.25
2023-05-01T13:19:12.327Z,5.37
2023-05-01T13:21:47.394Z,4.13
2023-05-01T13:24:15.030Z,6.20
2023-05-01T13:26:45.610Z,5.68
2023-05-01T13:29:15.820Z,4.85
2023-05-01T13:31:45.197Z,3.57
2023-05-01T13:34:18.439Z,4.43
2023-05-01T13:36:46.208Z,4.20
2023-05-01T13:39:21.246Z,4.15
2023-05-01T13:41:50.552Z,3.58
2023-05-01T13:44:19.056Z,4.57
2023-05-01T13:46:47.520Z,3.78
2023-05-01T13:49:15.739Z,2.33
2023-05-01T13:51:46.615Z,3.47
2023-05-01T13:54:15.184Z,2.90
2023-05-01T13:56:42.939Z,2.87
2023-05-01T13:59:12.081Z,3.45
2023-05-01T14:01:45.830Z,4.03
2023-05-01T14:04:17.750Z,4.53
2023-05-01T14:06:47.422Z,5.32
2023-05-01T14:09:18.488Z,6.67
2023-05-01T14:11:47.508Z,6.05
2023-05-01T14:14:18.918Z,4.28
2023-05-01T14:16:52.068Z,3.65
2023-05-01T14:19:19.683Z,3.33
2023-05-01T14:21:47.593Z,5.37
2023-05-01T14:24:17.661Z,3.42
2023-05-01T14:26:46.487Z,2.72
2023-05-01T14:29:22.344Z,3.03
2023-05-01T14:31:49.964Z,4.05
2023-05-01T14:34:18.772Z,4.93
2023-05-01T14:36:46.706Z,3.47
2023-05-01T14:39:16.725Z,3.58
2023-05-01T14:41:44.261Z,2.92
2023-05-01T14:44:13.940Z,6.22
2023-05-01T14:46:49.529Z,3.13
2023-05-01T14:49:20.054Z,3.05
2023-05-01T14:51:47.992Z,2.40
2023-05-01T14:54:16.081Z,2.53
2023-05-01T14:56:44.275Z,1.70
2023-05-01T14:59:12.393Z,5.33
2023-05-01T15:01:40.421Z,3.47
2023-05-01T15:04:10.959Z,3.97
2023-05-01T15:06:38.739Z,2.72
2023-05-01T15:09:06.233Z,3.45
2023-05-01T15:11:33.917Z,3.50
2023-05-01T15:14:02.502Z,3.22
2023-05-01T15:16:31.521Z,3.40
2023-05-01T15:18:59.006Z,5.57
2023-05-01T15:21:27.859Z,5.15
2023-05-01T15:23:55.301Z,4.23
2023-05-01T15:26:22.763Z,5.93
2023-05-01T15:28:50.207Z,6.63
2023-05-01T15:31:18.243Z,5.75
2023-05-01T15:33:46.188Z,6.43
2023-05-01T15:36:13.629Z,4.47
2023-05-01T15:38:43.494Z,4.75
2023-05-01T15:41:10.947Z,4.47
2023-05-01T15:43:38.791Z,6.45
2023-05-01T15:46:06.418Z,6.30
2023-05-01T15:48:34.256Z,6.27
2023-05-01T15:51:01.720Z,6.97
2023-05-01T15:53:29.140Z,6.47
2023-05-01T15:55:58.766Z,6.70
2023-05-01T15:58:26.239Z,7.95
2023-05-01T16:00:53.738Z,8.63
2023-05-01T16:03:21.512Z,8.52
2023-05-01T16:05:49.055Z,9.35
2023-05-01T16:08:18.681Z,7.82
2023-05-01T16:10:46.231Z,9.45
2023-05-01T16:13:15.188Z,13.40
2023-05-01T16:15:42.721Z,11.15
2023-05-01T16:18:18.288Z,9.68
2023-05-01T16:20:45.844Z,9.70
2023-05-01T16:23:15.948Z,9.07
2023-05-01T16:25:44.277Z,9.97
2023-05-01T16:28:12.800Z,10.15
2023-05-01T16:30:43.397Z,9.63
2023-05-01T16:33:18.220Z,11.68
2023-05-01T16:35:48.238Z,9.55
2023-05-01T16:38:15.847Z,9.77
2023-05-01T16:40:44.071Z,7.07
2023-05-01T16:43:11.563Z,8.85
2023-05-01T16:45:39.750Z,8.27
2023-05-01T16:48:08.620Z,6.53
2023-05-01T16:50:40.291Z,8.90
2023-05-01T16:53:07.957Z,7.15
2023-05-01T16:55:35.483Z,10.50
2023-05-01T16:58:03.029Z,9.80
2023-05-01T17:00:31.718Z,8.95
2023-05-01T17:02:59.960Z,6.70
2023-05-01T17:05:29.134Z,10.57
2023-05-01T17:07:56.632Z,9.95
2023-05-01T17:10:24.286Z,10.52
2023-05-01T17:12:51.755Z,12.55
2023-05-01T17:15:19.450Z,12.30
2023-05-01T17:17:47.019Z,13.05
2023-05-01T17:20:14.752Z,14.63
2023-05-01T17:22:44.417Z,14.80
2023-05-01T17:25:12.110Z,13.63
2023-05-01T17:27:39.561Z,16.97
2023-05-01T17:30:08.382Z,13.25
2023-05-01T17:32:37.449Z,13.70
2023-05-01T17:35:06.164Z,14.88
2023-05-01T17:37:33.981Z,18.88
2023-05-01T17:40:04.862Z,15.07
2023-05-01T17:42:32.509Z,14.82
2023-05-01T17:45:00.192Z,13.93
2023-05-01T17:47:28.094Z,18.80
2023-05-01T17:49:55.951Z,15.45
2023-05-01T17:52:23.712Z,14.43
2023-05-01T17:54:51.489Z,15.98
2023-05-01T17:57:20.731Z,14.60
2023-05-01T17:59:48.275Z,14.63
2023-05-01T18:02:15.834Z,18.58
2023-05-01T18:04:43.545Z,17.20
2023-05-01T18:07:11.153Z,15.20
2023-05-01T18:09:38.910Z,14.57
2023-05-01T18:12:06.828Z,16.10
2023-05-01T18:14:36.987Z,16.73
2023-05-01T18:17:04.742Z,16.70
2023-05-01T18:19:32.535Z,15.27
2023-05-01T18:22:04.167Z,15.90
2023-05-01T18:24:32.231Z,16.05
2023-05-01T18:27:00.731Z,16.65
2023-05-01T18:29:28.976Z,14.57
2023-05-01T18:31:58.011Z,14.77
2023-05-01T18:34:25.783Z,15.23
2023-05-01T18:36:54.612Z,14.63
2023-05-01T18:39:22.732Z,15.57
2023-05-01T18:41:50.474Z,15.43
2023-05-01T18:44:18.666Z,16.30
2023-05-01T18:46:46.529Z,16.20
2023-05-01T18:49:15.596Z,13.93
2023-05-01T18:51:43.220Z,12.32
2023-05-01T18:54:10.811Z,13.37
2023-05-01T18:56:38.450Z,14.02
2023-05-01T18:59:06.119Z,14.50
2023-05-01T19:01:33.923Z,15.13
2023-05-01T19:04:01.632Z,15.80
2023-05-01T19:06:31.217Z,16.83
2023-05-01T19:08:58.953Z,17.02
2023-05-01T19:11:30.179Z,16.70
2023-05-01T19:13:57.837Z,18.52
2023-05-01T19:16:25.680Z,18.58
2023-05-01T19:18:53.412Z,17.27
2023-05-01T19:21:21.122Z,20.30
2023-05-01T19:23:50.166Z,19.85
2023-05-01T19:26:17.854Z,20.00
2023-05-01T19:28:46.108Z,20.02
2023-05-01T19:31:14.802Z,19.87
2023-05-01T19:33:42.758Z,21.17
2023-05-01T19:36:10.438Z,18.35
2023-05-01T19:38:38.022Z,17.95
2023-05-01T19:41:06.932Z,19.42
2023-05-01T19:43:34.637Z,21.67
2023-05-01T19:46:02.382Z,19.27
2023-05-01T19:48:30.050Z,21.65
2023-05-01T19:50:57.638Z,19.25
2023-05-01T19:53:25.420Z,20.70
2023-05-01T19:55:53.529Z,18.27
2023-05-01T19:58:22.546Z,19.77
2023-05-01T20:00:50.298Z,17.10
2023-05-01T20:03:18.147Z,18.60
2023-05-01T20:05:45.838Z,22.17
2023-05-01T20:08:13.776Z,23.27
2023-05-01T20:10:41.687Z,20.63
2023-05-01T20:13:10.802Z,22.48
2023-05-01T20:15:40.219Z,19.30
2023-05-01T20:18:08.052Z,19.67
2023-05-01T20:20:35.950Z,25.60
2023-05-01T20:23:10.873Z,27.02
2023-05-01T20:25:38.743Z,24.70
2023-05-01T20:28:06.967Z,25.08
2023-05-01T20:30:35.626Z,27.02
2023-05-01T20:33:04.822Z,22.77
2023-05-01T20:35:33.675Z,24.60
2023-05-01T20:38:01.777Z,24.23
2023-05-01T20:40:30.080Z,26.17
2023-05-01T20:42:59.467Z,28.98
2023-05-01T20:45:27.468Z,25.47
2023-05-01T20:47:55.344Z,27.77
2023-05-01T20:50:24.511Z,27.48
2023-05-01T20:52:52.515Z,25.85
2023-05-01T20:55:20.426Z,26.73
2023-05-01T20:57:48.153Z,31.87
2023-05-01T21:00:16.776Z,31.20
2023-05-01T21:02:44.581Z,27.65
2023-05-01T21:05:12.648Z,29.48
2023-05-01T21:07:42.199Z,27.25
2023-05-01T21:10:13.532Z,29.03
2023-05-01T21:12:41.490Z,30.52
2023-05-01T21:15:11.092Z,30.48
2023-05-01T21:17:40.845Z,34.15
2023-05-01T21:20:13.544Z,30.23
2023-05-01T21:22:45.348Z,30.13
2023-05-01T21:25:15.258Z,27.65
2023-05-01T21:27:43.264Z,30.98
2023-05-01T21:30:16.074Z,27.88
2023-05-01T21:32:44.955Z,33.38
2023-05-01T21:35:16.705Z,29.90
2023-05-01T21:37:47.052Z,32.28
2023-05-01T21:40:15.320Z,32.53
2023-05-01T21:42:43.299Z,33.53
2023-05-01T21:45:13.154Z,29.02
2023-05-01T21:47:42.279Z,29.77
2023-05-01T21:50:13.007Z,30.65
2023-05-01T21:52:41.073Z,30.08
2023-05-01T21:55:18.572Z,31.33
2023-05-01T21:57:49.947Z,33.97
2023-05-01T22:00:19.211Z,30.00
2023-05-01T22:02:49.125Z,32.85
2023-05-01T22:05:19.056Z,31.00
2023-05-01T22:07:48.248Z,30.88
2023-05-01T22:10:18.432Z,30.92
2023-05-01T22:12:48.602Z,28.17
2023-05-01T22:15:16.357Z,32.55
2023-05-01T22:17:44.595Z,33.58
2023-05-01T22:20:13.023Z,36.65
2023-05-01T22:22:42.767Z,35.17
2023-05-01T22:25:11.864Z,33.37
2023-05-01T22:27:40.699Z,35.10
2023-05-01T22:30:08.953Z,35.92
2023-05-01T22:32:36.731Z,37.70
2023-05-01T22:35:04.688Z,40.35
2023-05-01T22:37:32.304Z,41.80
2023-05-01T22:40:00.360Z,39.13
2023-05-01T22:42:28.657Z,36.40
2023-05-01T22:44:57.827Z,39.00
2023-05-01T22:47:25.411Z,38.50
2023-05-01T22:49:52.919Z,46.30
2023-05-01T22:52:20.381Z,43.30
2023-05-01T22:54:48.127Z,47.15
2023-05-01T22:57:15.787Z,41.60
2023-05-01T22:59:43.847Z,52.75
2023-05-01T23:02:16.120Z,47.23
2023-05-01T23:04:43.750Z,48.45
2023-05-01T23:07:11.838Z,45.80
2023-05-01T23:09:39.360Z,47.95
2023-05-01T23:12:07.593Z,48.67
2023-05-01T23:14:37.611Z,49.27
2023-05-01T23:17:05.073Z,47.63
2023-05-01T23:19:33.886Z,54.88
2023-05-01T23:22:08.291Z,54.88
2023-05-01T23:24:47.422Z,53.50
2023-05-01T23:27:15.798Z,53.53
2023-05-01T23:29:50.890Z,55.45
2023-05-01T23:32:24.971Z,55.17
2023-05-01T23:34:55.150Z,50.28
2023-05-01T23:37:23.241Z,49.65
2023-05-01T23:39:53.337Z,43.77
2023-05-01T23:42:22.034Z,49.60
2023-05-01T23:44:49.829Z,54.90
2023-05-01T23:47:17.461Z,52.88
2023-05-01T23:49:45.015Z,44.90
2023-05-01T23:52:13.936Z,40.73
2023-05-01T23:54:41.543Z,43.88
2023-05-01T23:57:09.063Z,42.72
2023-05-01T23:59:36.650Z,48.38
